createdAt,value
2019-02-02T00:01:10.696Z,98978.78
2019-02-02T00:03:40.105Z,98973.16
2019-02-02T00:06:09.362Z,98980.41
2019-02-02T00:08:38.733Z,98983.74
2019-02-02T00:11:07.731Z,98987.02
2019-02-02T00:13:36.753Z,98991.31
2019-02-02T00:16:06.475Z,98994.30
2019-02-02T00:18:36.229Z,98986.86
2019-02-02T00:21:05.499Z,98985.38
2019-02-02T00:23:34.679Z,98989.00
2019-02-02T00:26:03.939Z,98987.02
2019-02-02T00:28:36.114Z,98989.99
2019-02-02T00:31:05.693Z,98994.94
2019-02-02T00:33:35.083Z,98996.28
2019-02-02T00:36:04.323Z,98994.65
2019-02-02T00:38:33.697Z,99000.91
2019-02-02T00:41:03.014Z,98999.92
2019-02-02T00:43:33.132Z,99004.90
2019-02-02T00:46:02.258Z,99008.51
2019-02-02T00:48:34.840Z,99008.87
2019-02-02T00:51:03.936Z,99009.50
2019-02-02T00:53:36.247Z,99012.81
2019-02-02T00:56:05.487Z,99016.09
2019-02-02T00:58:34.889Z,99013.11
2019-02-02T01:01:04.142Z,99011.63
2019-02-02T01:03:33.995Z,99016.09
2019-02-02T01:06:04.958Z,99014.10
2019-02-02T01:08:35.013Z,99009.63
2019-02-02T01:11:05.107Z,99015.73
2019-02-02T01:13:34.478Z,99020.05
2019-02-02T01:16:03.550Z,99022.04
2019-02-02T01:18:32.595Z,99024.69
2019-02-02T01:21:01.774Z,99032.94
2019-02-02T01:23:32.521Z,99028.98
2019-02-02T01:26:01.487Z,99033.92
2019-02-02T01:28:30.541Z,99033.09
2019-02-02T01:30:59.887Z,99031.07
2019-02-02T01:33:29.255Z,99038.55
2019-02-02T01:35:58.254Z,99042.19
2019-02-02T01:38:27.405Z,99045.98
2019-02-02T01:40:56.446Z,99048.82
2019-02-02T01:43:25.459Z,99046.64
2019-02-02T01:45:55.189Z,99044.51
2019-02-02T01:48:24.211Z,99055.60
2019-02-02T01:50:53.294Z,99056.44
2019-02-02T01:53:22.796Z,99057.43
2019-02-02T01:55:52.136Z,99061.72
2019-02-02T01:58:21.225Z,99062.38
2019-02-02T02:00:50.293Z,99062.03
2019-02-02T02:03:19.396Z,99067.51
2019-02-02T02:05:48.512Z,99069.97
2019-02-02T02:08:17.593Z,99064.53
2019-02-02T02:10:46.623Z,99068.33
2019-02-02T02:13:15.645Z,99071.95
2019-02-02T02:15:45.016Z,99071.30
2019-02-02T02:18:14.493Z,99072.63
2019-02-02T02:20:43.894Z,99063.03
2019-02-02T02:23:13.353Z,99076.91
2019-02-02T02:25:42.763Z,99075.62
2019-02-02T02:28:12.200Z,99077.94
2019-02-02T02:30:41.215Z,99081.06
2019-02-02T02:33:10.308Z,99079.27
2019-02-02T02:35:39.337Z,99080.90
2019-02-02T02:38:08.701Z,99082.89
2019-02-02T02:40:37.730Z,99084.38
2019-02-02T02:43:06.768Z,99091.30
2019-02-02T02:45:35.823Z,99092.63
2019-02-02T02:48:05.595Z,99097.09
2019-02-02T02:50:35.312Z,99105.53
2019-02-02T02:53:04.283Z,99103.56
2019-02-02T02:55:33.325Z,99120.10
2019-02-02T02:58:02.657Z,99115.46
2019-02-02T03:00:31.698Z,99115.61
2019-02-02T03:03:01.157Z,99120.77
2019-02-02T03:05:30.180Z,99131.84
2019-02-02T03:07:59.502Z,99132.01
2019-02-02T03:10:28.501Z,99133.49
2019-02-02T03:12:57.669Z,99140.77
2019-02-02T03:15:26.764Z,99142.41
2019-02-02T03:17:56.130Z,99145.41
2019-02-02T03:20:25.232Z,99151.52
2019-02-02T03:22:55.032Z,99150.70
2019-02-02T03:25:24.763Z,99157.13
2019-02-02T03:27:54.127Z,99155.14
2019-02-02T03:30:23.317Z,99160.94
2019-02-02T03:32:52.456Z,99158.95
2019-02-02T03:35:22.747Z,99166.89
2019-02-02T03:37:51.780Z,99176.48
2019-02-02T03:40:21.920Z,99174.17
2019-02-02T03:42:51.278Z,99180.46
2019-02-02T03:45:21.910Z,99173.84
2019-02-02T03:47:52.758Z,99179.64
2019-02-02T03:50:22.246Z,99185.41
2019-02-02T03:52:51.312Z,99186.74
2019-02-02T03:55:20.478Z,99187.56
2019-02-02T03:57:49.577Z,99201.97
2019-02-02T04:00:19.812Z,99203.28
2019-02-02T04:02:49.133Z,99198.97
2019-02-02T04:05:20.416Z,99212.55
2019-02-02T04:07:49.488Z,99204.95
2019-02-02T04:10:19.023Z,99206.59
2019-02-02T04:12:48.698Z,99208.73
2019-02-02T04:15:18.655Z,99208.58
2019-02-02T04:17:47.734Z,99215.36
2019-02-02T04:20:21.520Z,99218.84
2019-02-02T04:22:50.957Z,99220.14
2019-02-02T04:25:21.036Z,99217.18
2019-02-02T04:27:50.066Z,99225.76
2019-02-02T04:30:21.255Z,99223.63
2019-02-02T04:32:50.644Z,99230.06
2019-02-02T04:35:19.708Z,99231.08
2019-02-02T04:37:48.769Z,99228.77
2019-02-02T04:40:18.806Z,99234.38
2019-02-02T04:42:47.940Z,99230.09
2019-02-02T04:45:17.354Z,99237.34
2019-02-02T04:47:46.424Z,99242.16
2019-02-02T04:50:16.992Z,99246.60
2019-02-02T04:52:47.039Z,99248.75
2019-02-02T04:55:17.431Z,99248.43
2019-02-02T04:57:47.155Z,99247.42
2019-02-02T05:00:21.596Z,99245.78
2019-02-02T05:02:51.120Z,99253.53
2019-02-02T05:05:20.323Z,99256.88
2019-02-02T05:07:50.127Z,99255.02
2019-02-02T05:10:20.567Z,99262.48
2019-02-02T05:12:49.878Z,99259.18
2019-02-02T05:15:19.935Z,99269.58
2019-02-02T05:17:49.006Z,99261.47
2019-02-02T05:20:18.455Z,99265.13
2019-02-02T05:22:47.908Z,99269.41
2019-02-02T05:25:16.916Z,99272.72
2019-02-02T05:27:46.412Z,99270.42
2019-02-02T05:30:34.568Z,99278.36
2019-02-02T05:33:03.738Z,99287.27
2019-02-02T05:35:32.904Z,99285.95
2019-02-02T05:38:02.411Z,99296.53
2019-02-02T05:40:31.570Z,99293.58
2019-02-02T05:43:01.211Z,99291.91
2019-02-02T05:45:30.209Z,99291.24
2019-02-02T05:47:59.322Z,99302.98
2019-02-02T05:50:28.298Z,99299.84
2019-02-02T05:52:57.494Z,99300.84
2019-02-02T05:55:27.066Z,99305.32
2019-02-02T05:57:56.109Z,99315.56
2019-02-02T06:00:33.108Z,99310.08
2019-02-02T06:03:02.498Z,99317.00
2019-02-02T06:05:31.566Z,99320.81
2019-02-02T06:08:00.953Z,99326.14
2019-02-02T06:10:30.100Z,99321.98
2019-02-02T06:12:59.153Z,99330.93
2019-02-02T06:15:29.102Z,99329.77
2019-02-02T06:17:58.706Z,99335.59
2019-02-02T06:20:27.704Z,99334.62
2019-02-02T06:22:56.821Z,99336.92
2019-02-02T06:25:25.896Z,99338.24
2019-02-02T06:27:54.965Z,99337.23
2019-02-02T06:30:24.980Z,99352.30
2019-02-02T06:32:54.602Z,99351.47
2019-02-02T06:35:23.726Z,99358.05
2019-02-02T06:37:52.892Z,99363.70
2019-02-02T06:40:22.411Z,99366.50
2019-02-02T06:42:51.482Z,99365.67
2019-02-02T06:45:28.954Z,99371.59
2019-02-02T06:47:57.983Z,99370.45
2019-02-02T06:50:27.078Z,99378.59
2019-02-02T06:52:56.147Z,99384.55
2019-02-02T06:55:25.383Z,99386.53
2019-02-02T06:57:54.902Z,99384.52
2019-02-02T07:00:26.538Z,99393.77
2019-02-02T07:02:55.861Z,99399.41
2019-02-02T07:05:24.866Z,99402.06
2019-02-02T07:07:53.899Z,99406.53
2019-02-02T07:10:24.530Z,99408.37
2019-02-02T07:12:53.556Z,99418.30
2019-02-02T07:15:24.940Z,99414.28
2019-02-02T07:17:53.954Z,99414.02
2019-02-02T07:20:23.312Z,99413.01
2019-02-02T07:22:53.006Z,99415.80
2019-02-02T07:25:22.032Z,99427.71
2019-02-02T07:27:51.558Z,99428.87
2019-02-02T07:30:28.581Z,99434.53
2019-02-02T07:32:52.536Z,99428.57
2019-02-02T07:35:22.311Z,99437.63
2019-02-02T07:37:51.871Z,99445.77
2019-02-02T07:40:21.727Z,99449.70
2019-02-02T07:42:50.830Z,99446.70
2019-02-02T07:45:25.416Z,99451.98
2019-02-02T07:47:54.826Z,99459.31
2019-02-02T07:50:24.346Z,99459.67
2019-02-02T07:52:53.487Z,99465.95
2019-02-02T07:55:23.409Z,99480.84
2019-02-02T07:57:52.884Z,99490.63
2019-02-02T08:00:40.961Z,99487.41
2019-02-02T08:03:10.215Z,99493.78
2019-02-02T08:05:41.998Z,99490.78
2019-02-02T08:08:11.214Z,99503.52
2019-02-02T08:10:40.278Z,99506.36
2019-02-02T08:13:09.320Z,99514.60
2019-02-02T08:15:38.582Z,99517.59
2019-02-02T08:18:07.817Z,99514.00
2019-02-02T08:20:36.882Z,99522.61
2019-02-02T08:23:06.289Z,99523.27
2019-02-02T08:25:35.775Z,99532.84
2019-02-02T08:28:08.163Z,99533.80
2019-02-02T08:30:37.500Z,99533.50
2019-02-02T08:33:07.712Z,99537.47
2019-02-02T08:35:36.868Z,99546.78
2019-02-02T08:38:06.686Z,99551.37
2019-02-02T08:40:35.793Z,99553.41
2019-02-02T08:43:05.440Z,99561.56
2019-02-02T08:45:34.870Z,99565.49
2019-02-02T08:48:03.934Z,99569.30
2019-02-02T08:50:35.364Z,99573.94
2019-02-02T08:53:04.663Z,99573.33
2019-02-02T08:55:34.201Z,99580.91
2019-02-02T08:58:03.553Z,99585.85
2019-02-02T09:00:33.911Z,99592.83
2019-02-02T09:03:03.224Z,99601.44
2019-02-02T09:05:32.459Z,99605.77
2019-02-02T09:08:04.685Z,99615.33
2019-02-02T09:10:33.932Z,99608.04
2019-02-02T09:13:03.710Z,99603.41
2019-02-02T09:15:33.119Z,99617.99
2019-02-02T09:18:02.193Z,99615.36
2019-02-02T09:20:31.500Z,99625.34
2019-02-02T09:23:06.233Z,99626.16
2019-02-02T09:25:31.698Z,99628.66
2019-02-02T09:28:00.876Z,99630.95
2019-02-02T09:30:39.618Z,99644.19
2019-02-02T09:33:08.902Z,99636.31
2019-02-02T09:35:37.957Z,99644.02
2019-02-02T09:38:07.834Z,99651.47
2019-02-02T09:40:37.132Z,99650.16
2019-02-02T09:43:06.512Z,99660.47
2019-02-02T09:45:35.576Z,99668.25
2019-02-02T09:48:04.765Z,99668.61
2019-02-02T09:50:35.256Z,99670.47
2019-02-02T09:53:04.629Z,99678.85
2019-02-02T09:55:33.721Z,99680.22
2019-02-02T09:58:08.616Z,99685.39
2019-02-02T10:00:37.298Z,99690.54
2019-02-02T10:03:06.399Z,99695.85
2019-02-02T10:05:35.431Z,99705.53
2019-02-02T10:08:04.616Z,99707.53
2019-02-02T10:10:35.170Z,99706.86
2019-02-02T10:13:06.141Z,99716.46
2019-02-02T10:15:35.314Z,99719.81
2019-02-02T10:18:04.649Z,99720.48
2019-02-02T10:20:34.092Z,99727.01
2019-02-02T10:23:03.384Z,99729.00
2019-02-02T10:25:32.384Z,99729.50
2019-02-02T10:28:01.610Z,99735.13
2019-02-02T10:30:35.630Z,99735.83
2019-02-02T10:33:04.722Z,99741.17
2019-02-02T10:35:34.864Z,99743.13
2019-02-02T10:38:04.441Z,99754.56
2019-02-02T10:40:33.780Z,99750.11
2019-02-02T10:43:02.950Z,99752.10
2019-02-02T10:45:32.412Z,99762.05
2019-02-02T10:48:01.526Z,99753.11
2019-02-02T10:50:30.881Z,99769.04
2019-02-02T10:52:59.943Z,99765.05
2019-02-02T10:55:28.961Z,99769.74
2019-02-02T10:57:58.272Z,99779.37
2019-02-02T11:00:29.469Z,99773.44
2019-02-02T11:02:59.174Z,99773.41
2019-02-02T11:05:28.503Z,99780.08
2019-02-02T11:07:57.992Z,99779.94
2019-02-02T11:10:28.815Z,99784.12
2019-02-02T11:13:06.083Z,99787.73
2019-02-02T11:15:41.679Z,99796.05
2019-02-02T11:18:11.521Z,99792.39
2019-02-02T11:20:40.725Z,99789.72
2019-02-02T11:23:10.341Z,99791.36
2019-02-02T11:25:39.907Z,99792.72
2019-02-02T11:28:09.353Z,99794.39
2019-02-02T11:30:38.641Z,99799.67
2019-02-02T11:33:07.779Z,99794.36
2019-02-02T11:35:36.812Z,99802.70
2019-02-02T11:38:05.823Z,99802.00
2019-02-02T11:40:36.312Z,99801.19
2019-02-02T11:43:05.616Z,99806.34
2019-02-02T11:45:34.818Z,99797.36
2019-02-02T11:48:03.969Z,99805.17
2019-02-02T11:50:33.382Z,99808.99
2019-02-02T11:53:02.832Z,99806.84
2019-02-02T11:55:32.486Z,99813.66
2019-02-02T11:58:01.714Z,99813.37
2019-02-02T12:00:32.883Z,99811.72
2019-02-02T12:03:04.361Z,99817.03
2019-02-02T12:05:33.345Z,99818.02
2019-02-02T12:08:02.734Z,99823.34
2019-02-02T12:10:31.935Z,99834.66
2019-02-02T12:13:00.935Z,99837.64
2019-02-02T12:15:29.975Z,99838.14
2019-02-02T12:17:59.327Z,99844.77
2019-02-02T12:20:28.345Z,99848.27
2019-02-02T12:22:57.404Z,99856.23
2019-02-02T12:25:26.423Z,99847.38
2019-02-02T12:27:55.435Z,99866.92
2019-02-02T12:30:27.263Z,99867.40
2019-02-02T12:32:56.349Z,99877.86
2019-02-02T12:35:26.223Z,99874.70
2019-02-02T12:37:55.274Z,99879.66
2019-02-02T12:40:25.221Z,99877.66
2019-02-02T12:42:54.655Z,99882.30
2019-02-02T12:45:44.808Z,99886.29
2019-02-02T12:48:14.177Z,99893.28
2019-02-02T12:50:43.204Z,99897.92
2019-02-02T12:53:12.411Z,99899.56
2019-02-02T12:55:41.421Z,99902.87
2019-02-02T12:58:11.191Z,99909.17
2019-02-02T13:00:40.552Z,99916.78
2019-02-02T13:03:09.607Z,99926.06
2019-02-02T13:05:39.409Z,99929.68
2019-02-02T13:08:08.461Z,99936.00
2019-02-02T13:10:37.473Z,99942.97
2019-02-02T13:13:06.497Z,99941.02
2019-02-02T13:15:35.654Z,99943.45
2019-02-02T13:18:05.091Z,99952.30
2019-02-02T13:20:35.067Z,99956.96
2019-02-02T13:23:04.600Z,99960.29
2019-02-02T13:25:33.646Z,99970.25
2019-02-02T13:28:03.045Z,99978.55
2019-02-02T13:30:34.230Z,99972.89
2019-02-02T13:33:03.500Z,99971.58
2019-02-02T13:35:34.238Z,99978.20
2019-02-02T13:38:03.375Z,99978.19
2019-02-02T13:40:32.445Z,99987.11
2019-02-02T13:43:01.535Z,99989.62
2019-02-02T13:45:30.625Z,99985.28
2019-02-02T13:47:59.706Z,99995.44
2019-02-02T13:50:28.811Z,100000.77
2019-02-02T13:52:57.823Z,100002.41
2019-02-02T13:55:26.855Z,100004.39
2019-02-02T13:57:55.879Z,100002.77
2019-02-02T14:00:27.763Z,100013.08
2019-02-02T14:03:03.024Z,100013.08
2019-02-02T14:05:28.084Z,100017.02
2019-02-02T14:08:00.001Z,100026.00
2019-02-02T14:10:29.962Z,100027.63
2019-02-02T14:12:58.985Z,100029.48
2019-02-02T14:15:28.081Z,100038.61
2019-02-02T14:17:57.139Z,100043.61
2019-02-02T14:20:26.169Z,100047.08
2019-02-02T14:22:55.943Z,100055.20
2019-02-02T14:25:24.958Z,100066.47
2019-02-02T14:27:53.966Z,100057.13
2019-02-02T14:30:24.579Z,100056.60
2019-02-02T14:32:54.958Z,100063.09
2019-02-02T14:35:26.250Z,100071.39
2019-02-02T14:37:56.065Z,100072.01
2019-02-02T14:40:25.295Z,100072.34
2019-02-02T14:42:54.456Z,100071.96
2019-02-02T14:45:27.416Z,100072.99
2019-02-02T14:47:56.385Z,100081.58
2019-02-02T14:50:25.953Z,100088.92
2019-02-02T14:52:55.078Z,100092.67
2019-02-02T14:55:29.185Z,100101.16
2019-02-02T14:57:58.352Z,100100.12
2019-02-02T15:00:29.205Z,100101.63
2019-02-02T15:02:58.598Z,100104.11
2019-02-02T15:05:27.680Z,100109.27
2019-02-02T15:07:57.205Z,100113.58
2019-02-02T15:10:26.418Z,100119.89
2019-02-02T15:12:55.466Z,100123.37
2019-02-02T15:15:24.653Z,100123.37
2019-02-02T15:17:54.026Z,100136.64
2019-02-02T15:20:34.644Z,100137.64
2019-02-02T15:23:03.734Z,100147.23
2019-02-02T15:25:32.761Z,100138.36
2019-02-02T15:28:01.765Z,100153.77
2019-02-02T15:30:31.121Z,100155.84
2019-02-02T15:33:00.175Z,100158.55
2019-02-02T15:35:29.531Z,100171.28
2019-02-02T15:37:58.877Z,100179.05
2019-02-02T15:40:31.248Z,100177.98
2019-02-02T15:42:59.956Z,100185.87
2019-02-02T15:45:29.596Z,100193.55
2019-02-02T15:47:58.693Z,100191.16
2019-02-02T15:50:28.139Z,100201.16
2019-02-02T15:52:57.401Z,100208.64
2019-02-02T15:55:27.053Z,100216.39
2019-02-02T15:57:56.101Z,100212.73
2019-02-02T16:00:33.067Z,100218.37
2019-02-02T16:03:02.084Z,100225.94
2019-02-02T16:05:31.446Z,100230.41
2019-02-02T16:08:01.872Z,100233.85
2019-02-02T16:10:32.164Z,100235.58
2019-02-02T16:13:01.836Z,100245.11
2019-02-02T16:15:34.091Z,100249.56
2019-02-02T16:18:02.140Z,100253.51
2019-02-02T16:20:33.737Z,100253.55
2019-02-02T16:23:02.879Z,100255.48
2019-02-02T16:25:32.280Z,100263.72
2019-02-02T16:28:01.801Z,100268.84
2019-02-02T16:30:31.107Z,100277.81
2019-02-02T16:33:00.456Z,100287.42
2019-02-02T16:35:29.541Z,100291.87
2019-02-02T16:37:58.600Z,100290.22
2019-02-02T16:40:29.774Z,100298.17
2019-02-02T16:42:59.219Z,100300.87
2019-02-02T16:45:29.823Z,100301.11
2019-02-02T16:47:59.114Z,100313.24
2019-02-02T16:50:28.422Z,100319.59
2019-02-02T16:52:57.496Z,100322.62
2019-02-02T16:55:26.613Z,100328.97
2019-02-02T16:57:55.647Z,100335.59
2019-02-02T17:00:26.496Z,100340.17
2019-02-02T17:02:56.573Z,100344.70
2019-02-02T17:05:26.033Z,100351.84
2019-02-02T17:07:55.200Z,100362.31
2019-02-02T17:10:29.349Z,100361.91
2019-02-02T17:12:58.445Z,100368.48
2019-02-02T17:15:27.822Z,100379.78
2019-02-02T17:17:57.046Z,100379.09
2019-02-02T17:20:31.985Z,100380.34
2019-02-02T17:23:01.601Z,100388.59
2019-02-02T17:25:30.733Z,100394.51
2019-02-02T17:27:59.694Z,100396.87
2019-02-02T17:30:28.716Z,100402.19
2019-02-02T17:32:59.867Z,100409.40
2019-02-02T17:35:29.257Z,100409.09
2019-02-02T17:37:58.516Z,100420.56
2019-02-02T17:40:28.195Z,100426.63
2019-02-02T17:42:59.786Z,100424.75
2019-02-02T17:45:29.230Z,100430.66
2019-02-02T17:47:58.265Z,100433.59
2019-02-02T17:50:27.465Z,100430.88
2019-02-02T17:52:56.580Z,100438.70
2019-02-02T17:55:25.834Z,100447.29
2019-02-02T17:57:56.185Z,100452.78
2019-02-02T18:00:55.491Z,100456.44
2019-02-02T18:03:24.866Z,100456.27
2019-02-02T18:05:53.971Z,100465.97
2019-02-02T18:08:23.106Z,100469.53
2019-02-02T18:10:52.125Z,100469.40
2019-02-02T18:13:21.535Z,100479.43
2019-02-02T18:15:51.004Z,100482.16
2019-02-02T18:18:20.254Z,100489.70
2019-02-02T18:20:49.283Z,100487.88
2019-02-02T18:23:18.721Z,100498.55
2019-02-02T18:25:48.711Z,100503.11
2019-02-02T18:28:18.142Z,100507.16
2019-02-02T18:30:51.051Z,100517.97
2019-02-02T18:33:20.914Z,100525.23
2019-02-02T18:35:50.314Z,100524.86
2019-02-02T18:38:19.350Z,100534.38
2019-02-02T18:40:48.395Z,100543.86
2019-02-02T18:43:17.531Z,100547.61
2019-02-02T18:45:46.993Z,100563.05
2019-02-02T18:48:16.443Z,100564.84
2019-02-02T18:50:45.487Z,100569.62
2019-02-02T18:53:14.571Z,100579.66
2019-02-02T18:55:50.396Z,100578.96
2019-02-02T18:58:19.437Z,100583.44
2019-02-02T19:00:49.180Z,100587.28
2019-02-02T19:03:18.180Z,100591.92
2019-02-02T19:05:47.663Z,100595.08
2019-02-02T19:08:17.625Z,100597.03
2019-02-02T19:10:47.249Z,100595.47
2019-02-02T19:13:16.354Z,100599.87
2019-02-02T19:15:45.423Z,100609.36
2019-02-02T19:18:14.477Z,100611.64
2019-02-02T19:20:43.513Z,100615.91
2019-02-02T19:23:24.237Z,100624.56
2019-02-02T19:25:44.048Z,100625.27
2019-02-02T19:28:13.269Z,100630.83
2019-02-02T19:30:42.377Z,100637.32
2019-02-02T19:33:11.485Z,100643.82
2019-02-02T19:35:40.946Z,100641.43
2019-02-02T19:38:10.013Z,100648.88
2019-02-02T19:40:39.423Z,100655.76
2019-02-02T19:43:08.476Z,100663.45
2019-02-02T19:45:37.483Z,100667.35
2019-02-02T19:48:06.504Z,100671.84
2019-02-02T19:50:36.024Z,100673.98
2019-02-02T19:53:06.407Z,100681.05
2019-02-02T19:55:35.591Z,100686.34
2019-02-02T19:58:05.478Z,100688.50
2019-02-02T20:00:35.555Z,100693.20
2019-02-02T20:03:04.771Z,100708.59
2019-02-02T20:05:34.149Z,100708.67
2019-02-02T20:08:03.618Z,100717.06
2019-02-02T20:10:32.811Z,100723.25
2019-02-02T20:13:02.337Z,100721.04
2019-02-02T20:15:31.666Z,100730.06
2019-02-02T20:18:09.563Z,100727.48
2019-02-02T20:20:32.568Z,100746.23
2019-02-02T20:23:02.085Z,100749.61
2019-02-02T20:25:31.166Z,100754.28
2019-02-02T20:28:00.217Z,100758.75
2019-02-02T20:30:30.781Z,100769.48
2019-02-02T20:32:59.910Z,100776.30
2019-02-02T20:35:40.365Z,100775.23
2019-02-02T20:38:00.251Z,100789.44
2019-02-02T20:40:29.311Z,100790.43
2019-02-02T20:42:58.314Z,100797.22
2019-02-02T20:45:30.001Z,100798.22
2019-02-02T20:47:59.130Z,100807.00
2019-02-02T20:50:28.670Z,100806.79
2019-02-02T20:52:57.819Z,100808.24
2019-02-02T20:55:31.962Z,100815.41
2019-02-02T20:58:01.168Z,100819.87
2019-02-02T21:00:31.047Z,100820.05
2019-02-02T21:03:00.207Z,100819.05
2019-02-02T21:05:31.741Z,100820.91
2019-02-02T21:08:00.024Z,100828.66
2019-02-02T21:10:29.218Z,100842.05
2019-02-02T21:12:58.848Z,100844.61
2019-02-02T21:15:28.169Z,100854.39
2019-02-02T21:17:57.201Z,100863.70
2019-02-02T21:20:28.121Z,100870.05
2019-02-02T21:22:57.408Z,100870.20
2019-02-02T21:25:26.867Z,100876.77
2019-02-02T21:27:55.934Z,100877.54
2019-02-02T21:30:30.367Z,100882.14
2019-02-02T21:32:59.491Z,100884.70
2019-02-02T21:35:28.618Z,100883.38
2019-02-02T21:37:57.753Z,100890.95
2019-02-02T21:40:31.548Z,100890.30
2019-02-02T21:43:00.610Z,100894.27
2019-02-02T21:45:30.162Z,100894.27
2019-02-02T21:47:59.532Z,100899.88
2019-02-02T21:50:29.215Z,100901.70
2019-02-02T21:52:58.364Z,100909.03
2019-02-02T21:55:28.480Z,100911.06
2019-02-02T21:57:57.826Z,100919.55
2019-02-02T22:00:35.401Z,100915.20
2019-02-02T22:03:05.175Z,100920.51
2019-02-02T22:05:34.260Z,100922.91
2019-02-02T22:08:03.403Z,100923.53
2019-02-02T22:10:32.644Z,100927.14
2019-02-02T22:13:02.093Z,100935.55
2019-02-02T22:15:31.808Z,100937.12
2019-02-02T22:18:00.952Z,100943.50
2019-02-02T22:20:30.124Z,100939.98
2019-02-02T22:22:59.230Z,100948.10
2019-02-02T22:25:29.835Z,100955.69
2019-02-02T22:27:58.981Z,100960.65
2019-02-02T22:30:30.083Z,100969.31
2019-02-02T22:32:59.211Z,100973.91
2019-02-02T22:35:28.444Z,100975.33
2019-02-02T22:37:58.568Z,100986.02
2019-02-02T22:40:28.593Z,100994.97
2019-02-02T22:42:57.826Z,100990.16
2019-02-02T22:45:26.831Z,101005.11
2019-02-02T22:47:56.287Z,101012.11
2019-02-02T22:50:26.632Z,101012.59
2019-02-02T22:52:55.974Z,101020.92
2019-02-02T22:55:25.167Z,101035.38
2019-02-02T22:57:54.263Z,101036.70
2019-02-02T23:01:00.261Z,101042.74
2019-02-02T23:03:35.928Z,101055.05
2019-02-02T23:06:26.106Z,101059.16
2019-02-02T23:09:31.092Z,101061.82
2019-02-02T23:12:11.860Z,101067.59
2019-02-02T23:14:56.077Z,101065.55
2019-02-02T23:17:25.792Z,101067.70
2019-02-02T23:19:55.404Z,101078.41
2019-02-02T23:22:24.531Z,101074.56
2019-02-02T23:24:54.211Z,101084.45
2019-02-02T23:27:23.484Z,101084.22
2019-02-02T23:29:52.598Z,101092.64
2019-02-02T23:32:21.683Z,101103.73
2019-02-02T23:34:50.868Z,101109.30
2019-02-02T23:37:19.956Z,101121.33
2019-02-02T23:39:49.187Z,101120.23
2019-02-02T23:42:18.239Z,101119.63
2019-02-02T23:44:47.394Z,101135.17
2019-02-02T23:47:16.708Z,101139.98
2019-02-02T23:49:45.732Z,101137.10
2019-02-02T23:52:14.836Z,101145.40
2019-02-02T23:54:44.198Z,101150.60
2019-02-02T23:57:13.616Z,101145.42
2019-02-02T23:59:42.674Z,101148.92
